createdAt,value
2019-01-05T00:00:36.935Z,1.54
2019-01-05T00:03:24.853Z,1.59
2019-01-05T00:06:12.852Z,1.57
2019-01-05T00:09:00.891Z,1.63
2019-01-05T00:11:50.152Z,1.63
2019-01-05T00:14:50.664Z,1.67
2019-01-05T00:17:39.149Z,1.65
2019-01-05T00:20:37.711Z,1.64
2019-01-05T00:23:26.369Z,1.63
2019-01-05T00:26:08.647Z,1.67
2019-01-05T00:29:02.267Z,1.69
2019-01-05T00:31:45.564Z,1.68
2019-01-05T00:34:44.636Z,1.73
2019-01-05T00:37:38.749Z,1.70
2019-01-05T00:40:26.791Z,1.75
2019-01-05T00:43:15.781Z,1.73
2019-01-05T00:46:13.997Z,1.77
2019-01-05T00:49:09.954Z,1.71
2019-01-05T00:52:01.273Z,1.75
2019-01-05T00:55:05.884Z,1.82
2019-01-05T00:58:12.683Z,1.78
2019-01-05T01:00:59.839Z,1.78
2019-01-05T01:04:01.740Z,1.85
2019-01-05T01:06:45.405Z,1.89
2019-01-05T01:09:34.776Z,1.84
2019-01-05T01:12:32.919Z,1.74
2019-01-05T01:15:22.821Z,1.78
2019-01-05T01:18:24.819Z,1.76
2019-01-05T01:21:10.990Z,1.67
2019-01-05T01:24:08.231Z,1.68
2019-01-05T01:27:07.160Z,1.74
2019-01-05T01:29:52.555Z,1.65
2019-01-05T01:32:58.483Z,1.65
2019-01-05T01:35:53.686Z,1.64
2019-01-05T01:38:53.071Z,1.65
2019-01-05T01:42:07.664Z,1.69
2019-01-05T01:44:55.964Z,1.71
2019-01-05T01:47:48.993Z,1.68
2019-01-05T01:50:47.754Z,1.70
2019-01-05T01:53:43.025Z,1.71
2019-01-05T01:56:27.131Z,1.72
2019-01-05T01:59:26.143Z,1.72
2019-01-05T02:02:37.037Z,1.77
2019-01-05T02:05:36.968Z,1.74
2019-01-05T02:08:28.038Z,1.74
2019-01-05T02:11:19.868Z,1.72
2019-01-05T02:14:17.325Z,1.75
2019-01-05T02:17:24.081Z,1.68
2019-01-05T02:20:48.724Z,1.66
2019-01-05T02:24:37.201Z,1.70
2019-01-05T02:28:23.207Z,1.73
2019-01-05T02:31:55.892Z,1.69
2019-01-05T02:35:28.925Z,1.66
2019-01-05T02:38:39.609Z,1.67
2019-01-05T02:42:07.571Z,1.66
2019-01-05T02:46:06.385Z,1.72
2019-01-05T02:49:48.641Z,1.74
2019-01-05T02:53:20.992Z,1.67
2019-01-05T02:57:04.894Z,1.65
2019-01-05T03:01:08.657Z,1.59
2019-01-05T03:05:03.643Z,1.60
2019-01-05T03:09:15.759Z,1.47
2019-01-05T03:13:01.064Z,1.46
2019-01-05T03:17:03.815Z,1.45
2019-01-05T03:20:44.201Z,1.49
2019-01-05T03:24:23.169Z,1.49
2019-01-05T03:28:23.271Z,1.48
2019-01-05T03:32:16.236Z,1.57
2019-01-05T03:36:36.166Z,1.58
2019-01-05T03:40:31.372Z,1.66
2019-01-05T03:44:47.597Z,1.61
2019-01-05T03:48:32.381Z,1.63
2019-01-05T03:52:19.994Z,1.60
2019-01-05T03:56:14.551Z,1.65
2019-01-05T03:59:58.238Z,1.64
2019-01-05T04:03:56.078Z,1.71
2019-01-05T04:07:37.961Z,1.72
2019-01-05T04:11:22.412Z,1.67
2019-01-05T04:15:04.741Z,1.63
2019-01-05T04:18:49.059Z,1.55
2019-01-05T04:22:32.771Z,1.46
2019-01-05T04:26:10.768Z,1.44
2019-01-05T04:29:50.885Z,1.45
2019-01-05T04:33:39.038Z,1.42
2019-01-05T04:37:23.748Z,1.38
2019-01-05T04:40:47.840Z,1.37
2019-01-05T04:44:50.109Z,1.39
2019-01-05T04:48:44.326Z,1.33
2019-01-05T04:52:23.324Z,1.25
2019-01-05T04:56:16.629Z,1.25
2019-01-05T04:59:51.875Z,1.16
2019-01-05T05:03:38.284Z,1.02
2019-01-05T05:07:24.448Z,0.98
2019-01-05T05:10:53.810Z,0.99
2019-01-05T05:14:43.919Z,0.91
2019-01-05T05:18:46.983Z,0.81
2019-01-05T05:22:35.999Z,0.86
2019-01-05T05:26:47.121Z,0.82
2019-01-05T05:30:54.661Z,0.92
2019-01-05T05:34:39.176Z,0.96
2019-01-05T05:38:04.078Z,0.98
2019-01-05T05:42:06.513Z,1.03
2019-01-05T05:45:48.094Z,0.97
2019-01-05T05:49:45.830Z,1.03
2019-01-05T05:53:28.375Z,1.02
2019-01-05T05:57:21.925Z,1.03
2019-01-05T06:01:17.092Z,1.03
2019-01-05T06:05:25.648Z,1.03
2019-01-05T06:08:57.689Z,1.08
2019-01-05T06:12:59.632Z,1.07
2019-01-05T06:16:32.533Z,1.04
2019-01-05T06:20:16.846Z,1.06
2019-01-05T06:24:08.425Z,1.06
2019-01-05T06:27:57.595Z,1.06
2019-01-05T06:32:05.723Z,1.04
2019-01-05T06:35:20.591Z,1.06
2019-01-05T06:38:57.490Z,1.09
2019-01-05T06:43:07.302Z,1.06
2019-01-05T06:47:00.525Z,1.06
2019-01-05T06:51:00.773Z,1.03
2019-01-05T06:54:42.744Z,1.02
2019-01-05T06:58:32.640Z,0.93
2019-01-05T07:02:38.428Z,0.87
2019-01-05T07:06:22.689Z,0.83
2019-01-05T07:10:18.238Z,0.87
2019-01-05T07:14:08.383Z,0.91
2019-01-05T07:18:08.420Z,0.91
2019-01-05T07:22:05.466Z,0.99
2019-01-05T07:26:12.354Z,1.01
2019-01-05T07:29:54.615Z,1.09
2019-01-05T07:33:51.750Z,1.14
2019-01-05T07:37:46.357Z,1.03
2019-01-05T07:41:29.139Z,0.99
2019-01-05T07:45:15.549Z,0.91
2019-01-05T07:49:05.715Z,0.95
2019-01-05T07:52:43.656Z,0.94
2019-01-05T07:56:29.648Z,0.97
2019-01-05T08:00:19.247Z,0.91
2019-01-05T08:04:12.901Z,0.94
2019-01-05T08:08:16.455Z,0.89
2019-01-05T08:12:10.143Z,0.97
2019-01-05T08:16:25.071Z,1.02
2019-01-05T08:20:37.071Z,1.07
2019-01-05T08:24:00.113Z,0.93
2019-01-05T08:27:58.914Z,0.99
2019-01-05T08:31:52.667Z,0.93
2019-01-05T08:35:56.435Z,0.93
2019-01-05T08:39:57.943Z,0.94
2019-01-05T08:44:08.845Z,1.02
2019-01-05T08:48:13.792Z,1.06
2019-01-05T08:52:02.783Z,1.00
2019-01-05T08:55:58.771Z,0.99
2019-01-05T09:00:07.169Z,1.09
2019-01-05T09:04:09.678Z,1.13
2019-01-05T09:07:42.053Z,1.09
2019-01-05T09:11:47.319Z,1.17
2019-01-05T09:15:43.511Z,1.18
2019-01-05T09:19:46.140Z,1.23
2019-01-05T09:24:05.448Z,1.29
2019-01-05T09:27:45.061Z,1.35
2019-01-05T09:32:08.473Z,1.46
2019-01-05T09:35:57.192Z,1.57
2019-01-05T09:39:31.090Z,1.56
2019-01-05T09:43:25.585Z,1.70
2019-01-05T09:47:12.761Z,1.77
2019-01-05T09:51:06.106Z,1.73
2019-01-05T09:55:15.809Z,1.86
2019-01-05T09:58:55.954Z,1.87
2019-01-05T10:02:48.326Z,1.91
2019-01-05T10:06:31.291Z,2.08
2019-01-05T10:10:21.396Z,2.08
2019-01-05T10:14:29.030Z,2.09
2019-01-05T10:18:15.423Z,2.09
2019-01-05T10:21:52.834Z,2.15
2019-01-05T10:25:49.295Z,2.09
2019-01-05T10:29:47.664Z,2.16
2019-01-05T10:33:58.389Z,2.23
2019-01-05T10:37:39.716Z,2.26
2019-01-05T10:41:47.457Z,2.18
2019-01-05T10:45:33.578Z,2.18
2019-01-05T10:49:24.717Z,2.24
2019-01-05T10:53:10.104Z,2.23
2019-01-05T10:56:37.844Z,2.19
2019-01-05T11:00:34.915Z,2.22
2019-01-05T11:04:48.220Z,2.22
2019-01-05T11:08:32.996Z,2.17
2019-01-05T11:12:18.085Z,2.28
2019-01-05T11:16:33.268Z,2.29
2019-01-05T11:20:43.012Z,2.37
2019-01-05T11:24:17.009Z,2.53
2019-01-05T11:28:38.590Z,2.53
2019-01-05T11:32:46.329Z,2.49
2019-01-05T11:36:41.929Z,2.57
2019-01-05T11:40:30.124Z,2.62
2019-01-05T11:44:55.242Z,2.63
2019-01-05T11:48:58.619Z,2.67
2019-01-05T11:52:48.518Z,2.64
2019-01-05T11:56:45.499Z,2.67
2019-01-05T12:00:24.859Z,2.80
2019-01-05T12:04:01.085Z,2.68
2019-01-05T12:08:54.510Z,2.69
2019-01-05T12:13:05.125Z,2.99
2019-01-05T12:16:52.418Z,2.74
2019-01-05T12:20:47.852Z,2.77
2019-01-05T12:24:48.671Z,2.76
2019-01-05T12:28:48.780Z,2.79
2019-01-05T12:32:29.779Z,2.75
2019-01-05T12:36:02.573Z,2.76
2019-01-05T12:40:00.690Z,2.86
2019-01-05T12:43:50.000Z,2.83
2019-01-05T12:47:09.543Z,2.91
2019-01-05T12:51:01.785Z,2.95
2019-01-05T12:54:42.967Z,2.92
2019-01-05T12:58:31.783Z,2.94
2019-01-05T13:02:24.023Z,2.94
2019-01-05T13:06:12.146Z,2.95
2019-01-05T13:10:18.424Z,3.03
2019-01-05T13:13:51.294Z,3.08
2019-01-05T13:17:44.189Z,3.14
2019-01-05T13:22:06.527Z,3.23
2019-01-05T13:25:58.012Z,3.32
2019-01-05T13:29:48.499Z,3.39
2019-01-05T13:33:52.244Z,3.41
2019-01-05T13:38:16.658Z,3.44
2019-01-05T13:42:20.973Z,3.53
2019-01-05T13:46:03.677Z,3.54
2019-01-05T13:49:56.395Z,3.50
2019-01-05T13:53:35.503Z,3.59
2019-01-05T13:57:04.045Z,3.56
2019-01-05T14:00:02.703Z,3.55
2019-01-05T14:02:50.375Z,3.56
2019-01-05T14:05:38.780Z,3.56
2019-01-05T14:08:40.388Z,3.64
2019-01-05T14:11:27.035Z,3.64
2019-01-05T14:14:19.861Z,3.54
2019-01-05T14:17:07.961Z,3.59
2019-01-05T14:19:56.430Z,3.62
2019-01-05T14:22:44.766Z,3.66
2019-01-05T14:25:32.943Z,3.68
2019-01-05T14:28:37.428Z,3.73
2019-01-05T14:31:25.571Z,3.74
2019-01-05T14:34:24.233Z,3.78
2019-01-05T14:37:12.796Z,3.83
2019-01-05T14:40:20.317Z,3.84
2019-01-05T14:43:08.673Z,3.86
2019-01-05T14:45:52.910Z,3.89
2019-01-05T14:48:44.975Z,3.95
2019-01-05T14:51:33.237Z,3.93
2019-01-05T14:54:20.995Z,3.92
2019-01-05T14:57:17.863Z,3.97
2019-01-05T15:00:13.490Z,3.96
2019-01-05T15:03:06.580Z,3.99
2019-01-05T15:05:54.779Z,4.12
2019-01-05T15:08:53.922Z,3.98
2019-01-05T15:11:49.180Z,3.96
2019-01-05T15:14:50.611Z,3.94
2019-01-05T15:17:40.351Z,3.91
2019-01-05T15:20:31.873Z,3.94
2019-01-05T15:23:13.134Z,3.96
2019-01-05T15:26:06.278Z,4.00
2019-01-05T15:29:04.765Z,3.90
2019-01-05T15:31:45.150Z,3.91
2019-01-05T15:34:32.235Z,3.95
2019-01-05T15:37:19.053Z,3.95
2019-01-05T15:40:07.654Z,3.90
2019-01-05T15:43:08.833Z,3.96
2019-01-05T15:45:56.983Z,3.94
2019-01-05T15:48:55.539Z,3.90
2019-01-05T15:51:43.416Z,3.95
2019-01-05T15:54:31.519Z,3.89
2019-01-05T15:57:20.640Z,3.83
2019-01-05T16:00:15.828Z,3.90
2019-01-05T16:03:08.213Z,3.88
2019-01-05T16:05:56.545Z,3.83
2019-01-05T16:09:04.034Z,3.82
2019-01-05T16:11:51.896Z,3.83
2019-01-05T16:14:39.705Z,3.82
2019-01-05T16:17:34.858Z,3.88
2019-01-05T16:20:19.267Z,3.83
2019-01-05T16:23:23.736Z,3.82
2019-01-05T16:26:13.242Z,3.83
2019-01-05T16:29:01.058Z,3.83
2019-01-05T16:32:02.465Z,3.92
2019-01-05T16:35:07.298Z,3.88
2019-01-05T16:38:05.849Z,3.85
2019-01-05T16:40:54.991Z,3.83
2019-01-05T16:43:50.503Z,3.85
2019-01-05T16:46:32.785Z,3.84
2019-01-05T16:49:21.665Z,3.84
2019-01-05T16:52:13.945Z,3.82
2019-01-05T16:54:56.982Z,3.83
2019-01-05T16:57:45.013Z,3.79
2019-01-05T17:00:33.278Z,3.75
2019-01-05T17:03:21.290Z,3.77
2019-01-05T17:06:13.496Z,3.81
2019-01-05T17:08:58.600Z,3.79
2019-01-05T17:11:46.371Z,3.80
2019-01-05T17:14:34.496Z,3.79
2019-01-05T17:17:23.949Z,3.83
2019-01-05T17:20:12.137Z,3.84
2019-01-05T17:23:00.190Z,3.79
2019-01-05T17:25:58.743Z,3.82
2019-01-05T17:29:00.238Z,3.87
2019-01-05T17:31:55.273Z,3.90
2019-01-05T17:34:44.478Z,3.91
2019-01-05T17:37:32.616Z,4.03
2019-01-05T17:40:37.240Z,4.02
2019-01-05T17:43:29.362Z,3.97
2019-01-05T17:46:21.665Z,4.00
2019-01-05T17:49:09.426Z,4.06
2019-01-05T17:51:59.779Z,4.05
2019-01-05T17:54:48.020Z,4.06
2019-01-05T17:57:39.499Z,4.15
2019-01-05T18:00:30.794Z,4.16
2019-01-05T18:03:20.474Z,4.11
2019-01-05T18:06:08.514Z,4.15
2019-01-05T18:09:02.614Z,4.12
2019-01-05T18:11:50.853Z,4.11
2019-01-05T18:14:36.042Z,4.07
2019-01-05T18:17:30.342Z,4.13
2019-01-05T18:20:19.685Z,4.12
2019-01-05T18:23:07.938Z,4.11
2019-01-05T18:25:57.528Z,4.13
2019-01-05T18:29:05.087Z,4.13
2019-01-05T18:32:03.194Z,4.12
2019-01-05T18:34:58.062Z,4.11
2019-01-05T18:37:46.639Z,4.13
2019-01-05T18:40:34.656Z,4.09
2019-01-05T18:43:27.084Z,4.07
2019-01-05T18:46:28.473Z,4.07
2019-01-05T18:49:16.101Z,4.09
2019-01-05T18:52:05.552Z,4.02
2019-01-05T18:54:53.802Z,4.06
2019-01-05T18:57:41.087Z,4.05
2019-01-05T19:00:29.228Z,4.01
2019-01-05T19:03:17.446Z,4.04
2019-01-05T19:06:15.850Z,4.02
2019-01-05T19:09:12.169Z,4.03
2019-01-05T19:12:08.761Z,4.00
2019-01-05T19:14:56.978Z,4.03
2019-01-05T19:17:53.890Z,4.03
2019-01-05T19:20:42.068Z,4.09
2019-01-05T19:23:34.534Z,4.06
2019-01-05T19:26:36.038Z,4.13
2019-01-05T19:29:37.241Z,4.08
2019-01-05T19:32:26.521Z,4.08
2019-01-05T19:35:25.245Z,4.11
2019-01-05T19:38:27.532Z,4.10
2019-01-05T19:41:12.401Z,4.12
2019-01-05T19:44:03.193Z,4.13
2019-01-05T19:46:58.234Z,4.11
2019-01-05T19:49:43.191Z,4.14
2019-01-05T19:52:47.797Z,4.13
2019-01-05T19:55:47.914Z,4.11
2019-01-05T19:58:43.244Z,4.06
2019-01-05T20:01:29.691Z,4.06
2019-01-05T20:04:24.652Z,4.06
2019-01-05T20:07:25.834Z,4.08
2019-01-05T20:10:23.875Z,4.07
2019-01-05T20:13:11.243Z,4.06
2019-01-05T20:15:56.674Z,4.08
2019-01-05T20:18:44.673Z,4.07
2019-01-05T20:21:24.139Z,4.09
2019-01-05T20:24:19.316Z,4.08
2019-01-05T20:27:11.455Z,4.04
2019-01-05T20:30:09.590Z,4.08
2019-01-05T20:33:01.159Z,4.08
2019-01-05T20:35:50.420Z,4.09
2019-01-05T20:38:52.812Z,4.08
2019-01-05T20:41:40.982Z,4.07
2019-01-05T20:44:36.392Z,4.10
2019-01-05T20:47:19.113Z,4.06
2019-01-05T20:50:08.548Z,4.12
2019-01-05T20:52:57.708Z,4.15
2019-01-05T20:55:45.734Z,4.13
2019-01-05T20:58:50.229Z,4.08
2019-01-05T21:01:51.598Z,4.09
2019-01-05T21:04:40.853Z,4.14
2019-01-05T21:07:30.108Z,4.13
2019-01-05T21:10:32.744Z,4.09
2019-01-05T21:13:20.769Z,4.13
2019-01-05T21:16:25.013Z,4.10
2019-01-05T21:19:17.342Z,4.08
2019-01-05T21:22:03.281Z,4.06
2019-01-05T21:24:51.195Z,4.05
2019-01-05T21:27:37.804Z,4.11
2019-01-05T21:30:27.565Z,4.10
2019-01-05T21:33:25.532Z,4.08
2019-01-05T21:36:08.720Z,4.12
2019-01-05T21:39:05.568Z,4.03
2019-01-05T21:41:53.711Z,4.10
2019-01-05T21:44:43.935Z,4.12
2019-01-05T21:47:36.020Z,4.07
2019-01-05T21:50:24.377Z,4.07
2019-01-05T21:53:13.653Z,4.11
2019-01-05T21:56:03.142Z,4.10
2019-01-05T21:58:55.424Z,4.10
2019-01-05T22:01:44.880Z,4.06
2019-01-05T22:04:33.154Z,4.08
2019-01-05T22:07:25.159Z,4.16
2019-01-05T22:10:14.500Z,4.10
2019-01-05T22:13:06.590Z,4.12
2019-01-05T22:15:55.765Z,4.05
2019-01-05T22:18:57.397Z,4.11
2019-01-05T22:21:47.600Z,4.09
2019-01-05T22:24:43.039Z,4.07
2019-01-05T22:27:31.449Z,4.11
2019-01-05T22:30:19.491Z,4.07
2019-01-05T22:33:13.729Z,4.04
2019-01-05T22:36:06.091Z,4.09
2019-01-05T22:38:54.261Z,4.06
2019-01-05T22:41:43.525Z,4.04
2019-01-05T22:44:22.217Z,4.04
2019-01-05T22:47:05.949Z,4.09
2019-01-05T22:49:54.040Z,4.10
2019-01-05T22:52:42.242Z,4.04
2019-01-05T22:55:50.422Z,4.06
2019-01-05T22:58:51.862Z,3.96
2019-01-05T23:01:56.437Z,4.01
2019-01-05T23:04:44.015Z,4.03
2019-01-05T23:07:42.657Z,3.99
2019-01-05T23:10:50.382Z,4.01
2019-01-05T23:13:57.796Z,3.99
2019-01-05T23:16:47.123Z,3.99
2019-01-05T23:19:35.522Z,3.97
2019-01-05T23:22:23.572Z,3.99
2019-01-05T23:25:06.471Z,3.99
2019-01-05T23:28:04.525Z,3.96
2019-01-05T23:30:56.887Z,4.01
2019-01-05T23:33:48.984Z,3.97
2019-01-05T23:36:46.397Z,4.00
2019-01-05T23:39:34.739Z,3.99
2019-01-05T23:42:26.508Z,4.00
2019-01-05T23:45:28.856Z,4.02
2019-01-05T23:48:23.634Z,3.98
2019-01-05T23:51:15.548Z,3.94
2019-01-05T23:54:04.617Z,3.93
2019-01-05T23:56:52.356Z,3.99
2019-01-05T23:59:41.442Z,3.92
